createdAt,value
2018-05-25T00:00:55.250Z,56.21
2018-05-25T00:03:21.278Z,56.35
2018-05-25T00:05:47.302Z,56.22
2018-05-25T00:08:13.303Z,56.04
2018-05-25T00:10:39.306Z,56.48
2018-05-25T00:13:05.290Z,56.65
2018-05-25T00:15:31.316Z,56.94
2018-05-25T00:17:57.319Z,56.97
2018-05-25T00:20:23.324Z,57.00
2018-05-25T00:22:49.332Z,57.31
2018-05-25T00:25:15.343Z,57.48
2018-05-25T00:27:41.329Z,57.49
2018-05-25T00:30:07.379Z,57.62
2018-05-25T00:32:33.377Z,58.10
2018-05-25T00:34:59.442Z,57.87
2018-05-25T00:37:25.442Z,57.80
2018-05-25T00:39:51.475Z,58.09
2018-05-25T00:42:17.473Z,58.36
2018-05-25T00:44:43.476Z,58.27
2018-05-25T00:47:09.480Z,57.56
2018-05-25T00:49:35.490Z,58.06
2018-05-25T00:52:01.523Z,57.72
2018-05-25T00:54:27.524Z,57.84
2018-05-25T00:56:53.523Z,59.03
2018-05-25T00:59:19.511Z,59.32
2018-05-25T01:01:45.523Z,59.16
2018-05-25T01:04:11.544Z,59.03
2018-05-25T01:06:37.552Z,59.72
2018-05-25T01:09:03.606Z,58.80
2018-05-25T01:11:29.637Z,59.14
2018-05-25T01:13:55.670Z,59.23
2018-05-25T01:16:21.685Z,59.28
2018-05-25T01:18:47.702Z,58.57
2018-05-25T01:21:13.707Z,58.56
2018-05-25T01:23:39.688Z,58.97
2018-05-25T01:26:05.697Z,58.86
2018-05-25T01:28:31.711Z,58.64
2018-05-25T01:30:57.737Z,59.48
2018-05-25T01:33:23.736Z,59.90
2018-05-25T01:35:49.760Z,60.25
2018-05-25T01:38:15.748Z,59.15
2018-05-25T01:40:41.777Z,58.95
2018-05-25T01:45:40.258Z,60.55
2018-05-25T01:48:06.282Z,60.96
2018-05-25T01:50:32.281Z,61.20
2018-05-25T01:52:58.265Z,60.93
2018-05-25T01:55:24.237Z,61.47
2018-05-25T01:57:50.218Z,60.84
2018-05-25T02:00:16.232Z,60.79
2018-05-25T02:02:42.232Z,60.85
2018-05-25T02:05:08.267Z,60.76
2018-05-25T02:07:34.248Z,60.36
2018-05-25T02:10:00.241Z,60.27
2018-05-25T02:12:26.258Z,59.70
2018-05-25T02:14:52.298Z,60.63
2018-05-25T02:17:18.291Z,60.00
2018-05-25T02:19:44.303Z,59.98
2018-05-25T02:22:10.289Z,60.19
2018-05-25T02:24:36.280Z,60.20
2018-05-25T02:27:02.263Z,60.45
2018-05-25T02:29:28.293Z,59.85
2018-05-25T02:31:54.296Z,60.77
2018-05-25T02:34:20.309Z,61.84
2018-05-25T02:36:46.317Z,60.83
2018-05-25T02:39:12.326Z,60.97
2018-05-25T02:41:38.347Z,61.72
2018-05-25T02:44:04.366Z,61.34
2018-05-25T02:46:30.372Z,61.01
2018-05-25T02:48:56.372Z,61.05
2018-05-25T02:51:22.387Z,60.95
2018-05-25T02:53:48.403Z,61.23
2018-05-25T02:56:14.437Z,61.91
2018-05-25T02:58:40.441Z,61.57
2018-05-25T03:01:06.440Z,62.34
2018-05-25T03:03:32.447Z,62.18
2018-05-25T03:05:58.445Z,62.32
2018-05-25T03:08:24.467Z,62.93
2018-05-25T03:10:50.467Z,62.92
2018-05-25T03:13:16.463Z,62.73
2018-05-25T03:15:42.458Z,62.17
2018-05-25T03:18:08.463Z,62.69
2018-05-25T03:20:34.450Z,62.32
2018-05-25T03:23:00.454Z,62.75
2018-05-25T03:25:26.468Z,63.00
2018-05-25T03:27:52.517Z,62.12
2018-05-25T03:30:18.542Z,61.73
2018-05-25T03:32:44.574Z,61.44
2018-05-25T03:35:10.587Z,61.17
2018-05-25T03:37:36.612Z,61.28
2018-05-25T03:40:02.608Z,61.67
2018-05-25T03:42:28.627Z,61.84
2018-05-25T03:44:54.639Z,61.87
2018-05-25T03:47:20.671Z,62.21
2018-05-25T03:49:46.690Z,62.45
2018-05-25T03:52:12.706Z,62.34
2018-05-25T03:54:38.721Z,61.78
2018-05-25T03:57:04.724Z,62.59
2018-05-25T03:59:30.701Z,62.26
2018-05-25T04:01:56.699Z,62.66
2018-05-25T04:04:22.719Z,61.76
2018-05-25T04:06:48.724Z,61.60
2018-05-25T04:09:14.730Z,62.12
2018-05-25T04:11:40.755Z,62.26
2018-05-25T04:14:06.742Z,62.86
2018-05-25T04:16:32.833Z,62.32
2018-05-25T04:18:58.831Z,61.32
2018-05-25T04:21:24.842Z,60.61
2018-05-25T04:23:50.865Z,60.27
2018-05-25T04:26:16.872Z,59.63
2018-05-25T04:28:42.888Z,59.12
2018-05-25T04:31:08.888Z,57.49
2018-05-25T04:33:34.917Z,58.31
2018-05-25T04:36:00.908Z,56.77
2018-05-25T04:38:26.915Z,56.23
2018-05-25T04:40:52.915Z,55.42
2018-05-25T04:43:18.984Z,54.52
2018-05-25T04:45:45.008Z,54.39
2018-05-25T04:48:11.006Z,54.18
2018-05-25T04:50:37.011Z,53.69
2018-05-25T04:53:03.057Z,52.88
2018-05-25T04:55:29.077Z,52.41
2018-05-25T04:57:55.112Z,53.16
2018-05-25T05:00:21.158Z,53.48
2018-05-25T05:02:47.168Z,53.83
2018-05-25T05:05:13.165Z,54.32
2018-05-25T05:07:39.159Z,54.48
2018-05-25T05:10:05.173Z,54.40
2018-05-25T05:12:31.203Z,54.90
2018-05-25T05:14:57.236Z,55.31
2018-05-25T05:17:23.300Z,55.19
2018-05-25T05:19:49.343Z,55.38
2018-05-25T05:22:15.379Z,54.89
2018-05-25T05:24:41.389Z,52.49
2018-05-25T05:27:07.408Z,50.83
2018-05-25T05:29:33.418Z,50.03
2018-05-25T05:31:59.478Z,49.69
2018-05-25T05:34:25.498Z,49.80
2018-05-25T05:36:51.533Z,48.34
2018-05-25T05:39:17.584Z,47.42
2018-05-25T05:41:43.580Z,46.82
2018-05-25T05:44:09.611Z,46.61
2018-05-25T05:46:35.604Z,46.92
2018-05-25T05:49:01.651Z,47.37
2018-05-25T05:51:27.667Z,46.54
2018-05-25T05:53:53.695Z,45.58
2018-05-25T05:56:19.710Z,45.61
2018-05-25T05:58:45.732Z,44.95
2018-05-25T06:01:11.730Z,45.47
2018-05-25T06:03:37.752Z,44.99
2018-05-25T06:06:03.771Z,44.21
2018-05-25T06:08:29.832Z,44.11
2018-05-25T06:10:55.858Z,43.94
2018-05-25T06:13:21.893Z,43.00
2018-05-25T06:15:47.908Z,43.45
2018-05-25T06:18:13.994Z,42.57
2018-05-25T06:20:39.998Z,42.92
2018-05-25T06:23:06.003Z,42.92
2018-05-25T06:25:32.025Z,42.77
2018-05-25T06:27:58.036Z,41.71
2018-05-25T06:30:24.063Z,40.93
2018-05-25T06:32:50.069Z,40.10
2018-05-25T06:35:16.145Z,40.13
2018-05-25T06:37:42.325Z,40.33
2018-05-25T06:40:08.374Z,39.83
2018-05-25T06:42:34.385Z,38.66
2018-05-25T06:45:00.388Z,38.84
2018-05-25T06:47:26.396Z,38.73
2018-05-25T06:49:52.387Z,39.05
2018-05-25T06:52:18.422Z,39.14
2018-05-25T06:54:44.428Z,38.19
2018-05-25T06:57:10.447Z,38.42
2018-05-25T06:59:36.482Z,36.52
2018-05-25T07:02:02.495Z,36.41
2018-05-25T07:04:28.525Z,35.76
2018-05-25T07:06:54.509Z,34.11
2018-05-25T07:09:20.525Z,34.56
2018-05-25T07:11:46.531Z,34.14
2018-05-25T07:14:12.552Z,33.66
2018-05-25T07:16:38.537Z,32.90
2018-05-25T07:19:04.555Z,33.29
2018-05-25T07:21:30.537Z,33.97
2018-05-25T07:23:56.553Z,34.13
2018-05-25T07:26:22.538Z,31.74
2018-05-25T07:28:49.101Z,32.60
2018-05-25T07:31:15.130Z,33.15
2018-05-25T07:33:41.148Z,31.07
2018-05-25T07:36:07.149Z,31.10
2018-05-25T07:38:33.134Z,31.31
2018-05-25T07:40:59.140Z,31.94
2018-05-25T07:43:25.208Z,31.27
2018-05-25T07:45:51.251Z,32.85
2018-05-25T07:48:17.275Z,35.27
2018-05-25T07:50:43.289Z,35.80
2018-05-25T07:53:09.284Z,34.94
2018-05-25T07:55:35.297Z,34.77
2018-05-25T07:58:01.296Z,33.07
2018-05-25T08:00:27.302Z,31.84
2018-05-25T08:02:53.347Z,32.13
2018-05-25T08:05:19.361Z,33.34
2018-05-25T08:07:45.376Z,34.89
2018-05-25T08:10:11.392Z,34.44
2018-05-25T08:12:37.403Z,34.03
2018-05-25T08:15:03.468Z,32.98
2018-05-25T08:17:29.477Z,34.68
2018-05-25T08:19:55.495Z,35.84
2018-05-25T08:22:21.496Z,35.65
2018-05-25T08:24:47.562Z,33.78
2018-05-25T08:27:13.582Z,34.22
2018-05-25T08:29:39.637Z,33.60
2018-05-25T08:32:05.670Z,35.19
2018-05-25T08:34:31.677Z,36.15
2018-05-25T08:36:57.656Z,36.28
2018-05-25T08:39:23.689Z,35.99
2018-05-25T08:41:49.715Z,35.91
2018-05-25T08:44:15.728Z,34.53
2018-05-25T08:46:41.748Z,35.72
2018-05-25T08:49:07.745Z,34.05
2018-05-25T08:51:33.744Z,34.06
2018-05-25T08:53:59.767Z,35.35
2018-05-25T08:56:25.760Z,34.89
2018-05-25T08:58:51.764Z,34.96
2018-05-25T09:01:17.807Z,34.12
2018-05-25T09:03:43.817Z,34.91
2018-05-25T09:06:09.844Z,33.75
2018-05-25T09:08:35.897Z,33.89
2018-05-25T09:11:01.879Z,34.47
2018-05-25T09:13:27.881Z,33.62
2018-05-25T09:15:53.899Z,32.95
2018-05-25T09:18:19.908Z,34.06
2018-05-25T09:20:45.924Z,35.58
2018-05-25T09:23:11.924Z,34.80
2018-05-25T09:25:37.993Z,35.31
2018-05-25T09:28:04.023Z,34.85
2018-05-25T09:30:30.042Z,34.54
2018-05-25T09:32:56.059Z,33.83
2018-05-25T09:35:22.106Z,34.05
2018-05-25T09:37:48.098Z,34.43
2018-05-25T09:40:14.121Z,33.46
2018-05-25T09:42:40.131Z,33.78
2018-05-25T09:45:06.175Z,33.69
2018-05-25T09:47:32.200Z,33.62
2018-05-25T09:49:58.244Z,32.64
2018-05-25T09:52:24.296Z,32.90
2018-05-25T09:54:50.320Z,32.85
2018-05-25T09:57:16.363Z,32.22
2018-05-25T09:59:42.395Z,32.40
2018-05-25T10:02:08.410Z,31.09
2018-05-25T10:04:34.416Z,31.36
2018-05-25T10:07:00.452Z,31.86
2018-05-25T10:09:26.471Z,32.87
2018-05-25T10:11:52.495Z,33.71
2018-05-25T10:14:18.535Z,33.74
2018-05-25T10:16:44.534Z,32.25
2018-05-25T10:19:10.548Z,31.90
2018-05-25T10:21:36.569Z,32.79
2018-05-25T10:24:02.571Z,32.93
2018-05-25T10:26:28.612Z,33.65
2018-05-25T10:28:54.607Z,34.01
2018-05-25T10:31:20.596Z,34.20
2018-05-25T10:33:46.620Z,33.99
2018-05-25T10:36:12.646Z,34.42
2018-05-25T10:38:38.648Z,34.71
2018-05-25T10:41:04.684Z,35.12
2018-05-25T10:43:30.657Z,35.54
2018-05-25T10:45:56.649Z,35.79
2018-05-25T10:48:22.620Z,35.29
2018-05-25T10:50:48.566Z,35.49
2018-05-25T10:53:14.550Z,35.38
2018-05-25T10:55:40.523Z,35.45
2018-05-25T10:58:06.475Z,35.54
2018-05-25T11:00:32.433Z,35.34
2018-05-25T11:02:58.387Z,35.69
2018-05-25T11:05:24.330Z,35.97
2018-05-25T11:07:50.328Z,36.55
2018-05-25T11:10:16.291Z,35.93
2018-05-25T11:12:42.262Z,36.09
2018-05-25T11:15:08.235Z,35.99
2018-05-25T11:17:34.206Z,35.93
2018-05-25T11:20:00.188Z,35.88
2018-05-25T11:22:26.168Z,36.71
2018-05-25T11:24:52.109Z,36.06
2018-05-25T11:27:18.081Z,36.00
2018-05-25T11:29:44.048Z,36.92
2018-05-25T11:32:10.017Z,36.33
2018-05-25T11:34:35.978Z,35.63
2018-05-25T11:37:01.982Z,35.59
2018-05-25T11:39:27.976Z,35.71
2018-05-25T11:41:53.929Z,35.48
2018-05-25T11:44:19.881Z,34.62
2018-05-25T11:46:45.858Z,35.32
2018-05-25T11:49:11.820Z,35.42
2018-05-25T11:51:37.780Z,35.33
2018-05-25T11:54:03.746Z,35.67
2018-05-25T11:56:29.722Z,36.06
2018-05-25T11:58:55.765Z,36.29
2018-05-25T12:01:21.722Z,35.98
2018-05-25T12:03:47.696Z,35.95
2018-05-25T12:06:13.638Z,36.16
2018-05-25T12:08:39.629Z,36.15
2018-05-25T12:11:05.590Z,36.32
2018-05-25T12:13:31.541Z,36.22
2018-05-25T12:15:57.500Z,36.68
2018-05-25T12:18:23.474Z,35.60
2018-05-25T12:20:49.458Z,35.95
2018-05-25T12:23:15.467Z,36.37
2018-05-25T12:25:41.462Z,36.25
2018-05-25T12:28:07.464Z,36.72
2018-05-25T12:30:33.426Z,35.09
2018-05-25T12:32:59.406Z,36.23
2018-05-25T12:35:25.394Z,36.10
2018-05-25T12:37:51.352Z,36.05
2018-05-25T12:40:17.307Z,35.97
2018-05-25T12:42:43.297Z,36.17
2018-05-25T12:45:09.286Z,36.09
2018-05-25T12:47:35.273Z,36.07
2018-05-25T12:50:01.222Z,36.04
2018-05-25T12:52:27.184Z,36.25
2018-05-25T12:54:53.195Z,36.14
2018-05-25T12:57:19.179Z,35.46
2018-05-25T12:59:45.144Z,36.18
2018-05-25T13:02:11.090Z,35.67
2018-05-25T13:04:37.074Z,35.49
2018-05-25T13:07:03.027Z,35.85
2018-05-25T13:09:28.989Z,37.95
2018-05-25T13:11:54.956Z,37.47
2018-05-25T13:14:20.926Z,39.24
2018-05-25T13:16:46.997Z,47.19
2018-05-25T13:19:12.981Z,38.69
2018-05-25T13:21:39.040Z,37.76
2018-05-25T13:24:05.023Z,38.54
2018-05-25T13:26:31.059Z,36.40
2018-05-25T13:28:57.046Z,37.29
2018-05-25T13:31:22.990Z,36.07
2018-05-25T13:33:48.952Z,37.58
2018-05-25T13:36:14.896Z,38.49
2018-05-25T13:38:40.880Z,35.15
2018-05-25T13:41:06.840Z,35.96
2018-05-25T13:43:32.859Z,35.99
2018-05-25T13:45:58.815Z,36.24
2018-05-25T13:48:24.812Z,36.48
2018-05-25T13:50:50.771Z,36.26
2018-05-25T13:53:16.780Z,37.20
2018-05-25T13:55:42.751Z,35.23
2018-05-25T13:58:08.752Z,36.46
2018-05-25T14:00:34.782Z,35.48
2018-05-25T14:03:00.753Z,35.76
2018-05-25T14:05:26.719Z,36.09
2018-05-25T14:07:52.673Z,36.05
2018-05-25T14:10:18.710Z,37.77
2018-05-25T14:12:44.668Z,35.76
2018-05-25T14:15:10.732Z,35.52
2018-05-25T14:17:36.773Z,35.89
2018-05-25T14:20:02.735Z,34.31
2018-05-25T14:22:28.673Z,36.68
2018-05-25T14:24:54.660Z,34.21
2018-05-25T14:27:20.595Z,33.68
2018-05-25T14:29:46.688Z,36.81
2018-05-25T14:32:12.699Z,35.76
2018-05-25T14:34:38.649Z,34.23
2018-05-25T14:37:04.573Z,34.58
2018-05-25T14:39:30.540Z,34.79
2018-05-25T14:41:56.517Z,36.54
2018-05-25T14:44:22.538Z,34.87
2018-05-25T14:46:48.944Z,35.13
2018-05-25T14:49:14.910Z,35.71
2018-05-25T14:51:40.857Z,34.16
2018-05-25T14:54:06.806Z,36.95
2018-05-25T14:56:32.986Z,34.78
2018-05-25T14:58:59.020Z,33.34
2018-05-25T15:01:24.974Z,33.35
2018-05-25T15:03:51.106Z,33.56
2018-05-25T15:06:17.094Z,33.39
2018-05-25T15:08:43.081Z,33.42
2018-05-25T15:11:09.114Z,35.77
2018-05-25T15:13:35.322Z,34.92
2018-05-25T15:16:01.472Z,36.18
2018-05-25T15:18:27.511Z,34.45
2018-05-25T15:20:53.471Z,34.95
2018-05-25T15:23:19.437Z,35.00
2018-05-25T15:28:22.461Z,33.73
2018-05-25T15:33:21.118Z,35.20
2018-05-25T15:35:47.213Z,35.54
2018-05-25T15:38:17.642Z,35.62
2018-05-25T15:40:44.104Z,33.74
2018-05-25T15:43:10.179Z,35.30
2018-05-25T15:45:36.167Z,33.59
2018-05-25T15:48:02.202Z,35.96
2018-05-25T15:50:28.332Z,34.66
2018-05-25T15:52:55.380Z,33.65
2018-05-25T15:55:21.442Z,32.74
2018-05-25T15:57:47.585Z,35.47
2018-05-25T16:00:13.643Z,44.00
2018-05-25T16:02:39.753Z,44.35
2018-05-25T16:05:05.773Z,47.39
2018-05-25T16:07:31.944Z,42.05
2018-05-25T16:09:57.973Z,42.33
2018-05-25T16:12:23.959Z,42.41
2018-05-25T16:14:49.942Z,43.62
2018-05-25T16:17:15.896Z,42.57
2018-05-25T16:19:41.902Z,40.81
2018-05-25T16:22:08.255Z,44.47
2018-05-25T16:24:34.270Z,41.55
2018-05-25T16:27:00.233Z,47.91
2018-05-25T16:29:26.211Z,41.98
2018-05-25T16:31:52.339Z,46.65
2018-05-25T16:34:20.123Z,47.30
2018-05-25T16:36:47.133Z,50.47
2018-05-25T16:39:13.148Z,48.92
2018-05-25T16:41:39.260Z,39.33
2018-05-25T16:44:05.394Z,42.62
2018-05-25T16:46:31.365Z,46.26
2018-05-25T16:48:57.779Z,52.91
2018-05-25T16:51:23.800Z,42.50
2018-05-25T16:53:50.902Z,42.27
2018-05-25T16:56:16.948Z,45.53
2018-05-25T16:58:43.028Z,46.44
2018-05-25T17:01:09.029Z,45.68
2018-05-25T17:03:42.152Z,41.30
2018-05-25T17:06:08.298Z,46.50
2018-05-25T17:08:34.289Z,46.94
2018-05-25T17:11:00.872Z,48.91
2018-05-25T17:13:27.177Z,48.21
2018-05-25T17:15:56.273Z,39.03
2018-05-25T17:18:22.440Z,46.34
2018-05-25T17:20:48.442Z,47.16
2018-05-25T17:23:14.533Z,47.60
2018-05-25T17:25:40.554Z,44.34
2018-05-25T17:28:07.966Z,41.73
2018-05-25T17:30:34.004Z,40.13
2018-05-25T17:33:00.001Z,41.75
2018-05-25T17:35:29.327Z,40.30
2018-05-25T17:37:55.741Z,42.52
2018-05-25T17:40:23.788Z,44.00
2018-05-25T17:42:49.981Z,42.83
2018-05-25T17:45:16.256Z,40.76
2018-05-25T17:47:42.250Z,42.66
2018-05-25T17:50:08.297Z,43.76
2018-05-25T17:52:34.973Z,41.58
2018-05-25T17:55:01.985Z,45.07
2018-05-25T17:57:28.135Z,40.64
2018-05-25T17:59:54.775Z,42.00
2018-05-25T18:02:20.858Z,43.49
2018-05-25T18:04:47.114Z,41.30
2018-05-25T18:07:13.085Z,43.07
2018-05-25T18:09:39.279Z,41.52
2018-05-25T18:12:05.253Z,43.37
2018-05-25T18:14:31.463Z,43.65
2018-05-25T18:16:57.415Z,39.73
2018-05-25T18:19:23.357Z,39.46
2018-05-25T18:21:50.306Z,40.33
2018-05-25T18:24:16.443Z,38.98
2018-05-25T18:26:42.387Z,39.72
2018-05-25T18:29:08.586Z,39.93
2018-05-25T18:31:34.814Z,39.08
2018-05-25T18:34:00.784Z,40.01
2018-05-25T18:36:26.769Z,39.76
2018-05-25T18:38:52.747Z,40.85
2018-05-25T18:41:18.710Z,39.87
2018-05-25T18:43:44.680Z,39.71
2018-05-25T18:46:11.617Z,40.24
2018-05-25T18:48:37.578Z,40.03
2018-05-25T18:51:03.572Z,39.53
2018-05-25T18:53:29.546Z,39.75
2018-05-25T18:55:55.778Z,39.57
2018-05-25T18:58:21.718Z,39.98
2018-05-25T19:00:47.673Z,40.26
2018-05-25T19:03:13.621Z,40.07
2018-05-25T19:05:39.591Z,40.37
2018-05-25T19:08:05.562Z,40.34
2018-05-25T19:10:31.535Z,40.72
2018-05-25T19:12:57.514Z,41.20
2018-05-25T19:15:23.463Z,41.25
2018-05-25T19:17:49.814Z,41.74
2018-05-25T19:20:15.769Z,42.27
2018-05-25T19:22:41.709Z,43.89
2018-05-25T19:25:07.655Z,45.04
2018-05-25T19:27:33.646Z,45.28
2018-05-25T19:29:59.605Z,45.82
2018-05-25T19:32:25.652Z,45.69
2018-05-25T19:34:51.646Z,45.90
2018-05-25T19:37:17.630Z,46.72
2018-05-25T19:39:43.593Z,46.77
2018-05-25T19:42:09.617Z,46.96
2018-05-25T19:44:35.578Z,47.11
2018-05-25T19:47:01.571Z,47.46
2018-05-25T19:49:27.557Z,47.47
2018-05-25T19:51:53.537Z,47.61
2018-05-25T19:54:19.577Z,47.73
2018-05-25T19:56:45.549Z,47.47
2018-05-25T19:59:11.521Z,47.62
2018-05-25T20:01:37.503Z,47.98
2018-05-25T20:04:03.587Z,48.30
2018-05-25T20:06:29.491Z,48.22
2018-05-25T20:08:55.459Z,47.70
2018-05-25T20:11:21.490Z,47.25
2018-05-25T20:13:47.496Z,47.74
2018-05-25T20:16:13.514Z,47.45
2018-05-25T20:18:39.433Z,47.56
2018-05-25T20:21:05.449Z,47.89
2018-05-25T20:23:31.424Z,47.96
2018-05-25T20:25:57.378Z,47.72
2018-05-25T20:28:23.376Z,48.17
2018-05-25T20:30:49.351Z,48.17
2018-05-25T20:33:15.302Z,48.46
2018-05-25T20:35:41.252Z,48.80
2018-05-25T20:38:07.216Z,48.68
2018-05-25T20:40:33.173Z,48.95
2018-05-25T20:42:59.173Z,49.13
2018-05-25T20:45:25.139Z,48.70
2018-05-25T20:47:51.124Z,49.23
2018-05-25T20:50:17.130Z,49.58
2018-05-25T20:52:43.103Z,49.55
2018-05-25T20:55:09.105Z,49.95
2018-05-25T20:57:35.049Z,50.63
2018-05-25T21:00:00.996Z,50.83
2018-05-25T21:02:26.992Z,50.27
2018-05-25T21:04:52.923Z,50.48
2018-05-25T21:07:18.893Z,50.73
2018-05-25T21:09:44.862Z,50.82
2018-05-25T21:12:10.829Z,50.63
2018-05-25T21:14:36.768Z,50.28
2018-05-25T21:17:02.746Z,50.13
2018-05-25T21:19:28.762Z,50.65
2018-05-25T21:21:54.740Z,50.32
2018-05-25T21:24:20.691Z,50.79
2018-05-25T21:26:46.670Z,50.66
2018-05-25T21:29:12.652Z,51.54
2018-05-25T21:31:38.589Z,52.10
2018-05-25T21:34:04.573Z,52.67
2018-05-25T21:36:30.541Z,52.65
2018-05-25T21:38:56.528Z,52.52
2018-05-25T21:41:22.502Z,52.24
2018-05-25T21:43:48.446Z,52.74
2018-05-25T21:46:14.388Z,53.49
2018-05-25T21:48:40.334Z,53.40
2018-05-25T21:51:06.286Z,53.71
2018-05-25T21:53:32.271Z,54.05
2018-05-25T21:55:58.230Z,54.44
2018-05-25T21:58:24.187Z,54.94
2018-05-25T22:00:50.209Z,54.76
2018-05-25T22:03:16.168Z,54.65
2018-05-25T22:05:42.124Z,54.88
2018-05-25T22:08:08.083Z,54.40
2018-05-25T22:10:34.017Z,54.17
2018-05-25T22:12:59.991Z,54.59
2018-05-25T22:15:26.057Z,54.74
2018-05-25T22:17:52.062Z,54.27
2018-05-25T22:20:18.016Z,53.63
2018-05-25T22:22:43.988Z,54.84
2018-05-25T22:25:09.949Z,55.75
2018-05-25T22:27:35.922Z,56.16
2018-05-25T22:30:01.856Z,56.33
2018-05-25T22:32:27.820Z,56.70
2018-05-25T22:34:53.822Z,56.10
2018-05-25T22:37:19.773Z,56.27
2018-05-25T22:39:45.734Z,56.55
2018-05-25T22:42:11.713Z,56.41
2018-05-25T22:44:37.662Z,56.72
2018-05-25T22:47:03.602Z,55.99
2018-05-25T22:49:29.560Z,56.59
2018-05-25T22:51:55.527Z,57.26
2018-05-25T22:54:21.501Z,56.94
2018-05-25T22:56:47.462Z,57.40
2018-05-25T22:59:13.433Z,56.78
2018-05-25T23:01:39.396Z,56.21
2018-05-25T23:04:05.373Z,56.15
2018-05-25T23:06:31.325Z,56.96
2018-05-25T23:08:57.306Z,57.12
2018-05-25T23:11:23.259Z,57.64
2018-05-25T23:13:49.220Z,57.36
2018-05-25T23:16:15.178Z,57.22
2018-05-25T23:18:41.156Z,58.24
2018-05-25T23:21:07.085Z,58.30
2018-05-25T23:23:33.012Z,57.76
2018-05-25T23:25:58.938Z,57.58
2018-05-25T23:28:24.887Z,57.91
2018-05-25T23:30:50.827Z,58.21
2018-05-25T23:33:16.773Z,58.18
2018-05-25T23:35:42.717Z,57.67
2018-05-25T23:38:08.672Z,58.19
2018-05-25T23:40:34.628Z,58.19
2018-05-25T23:43:00.576Z,58.25
2018-05-25T23:45:26.543Z,59.00
2018-05-25T23:47:52.499Z,58.50
2018-05-25T23:50:18.453Z,58.88
2018-05-25T23:52:44.381Z,59.30
2018-05-25T23:55:10.353Z,59.24
2018-05-25T23:57:36.302Z,59.48
